地図

経路データ

SID SEASON NUMBER BASIN SUBBASIN NAME ISO_TIME NATURE LAT LON WMO_WIND WMO_PRES WMO_AGENCY TRACK_TYPE DIST2LAND LANDFALL IFLAG USA_AGENCY USA_ATCF_ID USA_LAT USA_LON USA_RECORD USA_STATUS USA_WIND USA_PRES USA_SSHS USA_R34_NE USA_R34_SE USA_R34_SW USA_R34_NW USA_R50_NE USA_R50_SE USA_R50_SW USA_R50_NW USA_R64_NE USA_R64_SE USA_R64_SW USA_R64_NW USA_POCI USA_ROCI USA_RMW USA_EYE TOKYO_LAT TOKYO_LON TOKYO_GRADE TOKYO_WIND TOKYO_PRES TOKYO_R50_DIR TOKYO_R50_LONG TOKYO_R50_SHORT TOKYO_R30_DIR TOKYO_R30_LONG TOKYO_R30_SHORT TOKYO_LAND CMA_LAT CMA_LON CMA_CAT CMA_WIND CMA_PRES HKO_LAT HKO_LON HKO_CAT HKO_WIND HKO_PRES NEWDELHI_LAT NEWDELHI_LON NEWDELHI_GRADE NEWDELHI_WIND NEWDELHI_PRES NEWDELHI_CI NEWDELHI_DP NEWDELHI_POCI REUNION_LAT REUNION_LON REUNION_TYPE REUNION_WIND REUNION_PRES REUNION_TNUM REUNION_CI REUNION_RMW REUNION_R34_NE REUNION_R34_SE REUNION_R34_SW REUNION_R34_NW REUNION_R50_NE REUNION_R50_SE REUNION_R50_SW REUNION_R50_NW REUNION_R64_NE REUNION_R64_SE REUNION_R64_SW REUNION_R64_NW BOM_LAT BOM_LON BOM_TYPE BOM_WIND BOM_PRES BOM_TNUM BOM_CI BOM_RMW BOM_R34_NE BOM_R34_SE BOM_R34_SW BOM_R34_NW BOM_R50_NE BOM_R50_SE BOM_R50_SW BOM_R50_NW BOM_R64_NE BOM_R64_SE BOM_R64_SW BOM_R64_NW BOM_ROCI BOM_POCI BOM_EYE BOM_POS_METHOD BOM_PRES_METHOD NADI_LAT NADI_LON NADI_CAT NADI_WIND NADI_PRES WELLINGTON_LAT WELLINGTON_LON WELLINGTON_WIND WELLINGTON_PRES DS824_LAT DS824_LON DS824_STAGE DS824_WIND DS824_PRES TD9636_LAT TD9636_LON TD9636_STAGE TD9636_WIND TD9636_PRES TD9635_LAT TD9635_LON TD9635_WIND TD9635_PRES TD9635_ROCI NEUMANN_LAT NEUMANN_LON NEUMANN_CLASS NEUMANN_WIND NEUMANN_PRES MLC_LAT MLC_LON MLC_CLASS MLC_WIND MLC_PRES USA_GUST BOM_GUST BOM_GUST_PER REUNION_GUST REUNION_GUST_PER USA_SEAHGT USA_SEARAD_NE USA_SEARAD_SE USA_SEARAD_SW USA_SEARAD_NW STORM_SPEED STORM_DIR
1926196N14127 1926 24 WP MM NOT_NAMED 1926-07-14 22:00:00 NR 14.1000 126.800 main 249 227 __________O___ -1 14.1000 126.800 2 10 274
1926196N14127 1926 24 WP MM NOT_NAMED 1926-07-15 00:00:00 NR 14.1235 126.466 main 227 175 __________P___ -1 14.1235 126.466 2 10 274
1926196N14127 1926 24 WP MM NOT_NAMED 1926-07-15 03:00:00 NR 14.1557 125.960 main 175 113 __________P___ -1 14.1557 125.960 2 10 273
1926196N14127 1926 24 WP MM NOT_NAMED 1926-07-15 06:00:00 NR 14.1815 125.437 main 113 63 __________P___ -1 14.1815 125.437 2 10 272
1926196N14127 1926 24 WP MM NOT_NAMED 1926-07-15 09:00:00 NR 14.1975 124.890 main 63 46 __________P___ -1 14.1975 124.890 2 11 271
1926196N14127 1926 24 WP MM NOT_NAMED 1926-07-15 10:00:00 NR 14.2000 124.700 main 46 22 __________O___ -1 14.2000 124.700 2 11 271
1926196N14127 1926 24 WP MM NOT_NAMED 1926-07-15 12:00:00 NR 14.2026 124.310 main 22 22 __________P___ -1 14.2026 124.310 2 11 271
1926196N14127 1926 24 WP MM NOT_NAMED 1926-07-15 15:00:00 NR 14.2243 123.725 main 33 31 __________P___ -1 14.2243 123.725 2 11 276
1926196N14127 1926 24 WP MM NOT_NAMED 1926-07-15 18:00:00 NR 14.3088 123.181 main 31 15 __________P___ -1 14.3088 123.181 2 10 286
1926196N14127 1926 24 WP MM NOT_NAMED 1926-07-15 21:00:00 NR 14.5028 122.725 main 33 33 __________P___ -1 14.5028 122.725 2 10 297
1926196N14127 1926 24 WP MM NOT_NAMED 1926-07-15 22:00:00 NR 14.6000 122.600 main 44 44 __________O___ -1 14.6000 122.600 2 9 321
1926196N14127 1926 24 WP MM NOT_NAMED 1926-07-16 00:00:00 NR 14.8633 122.425 main 78 72 __________P___ -1 14.8633 122.425 2 10 337
1926196N14127 1926 24 WP MM NOT_NAMED 1926-07-16 03:00:00 NR 15.3723 122.256 main 74 10 __________P___ -1 15.3723 122.256 2 11 346
1926196N14127 1926 24 WP MM NOT_NAMED 1926-07-16 06:00:00 NR 15.9682 122.149 main 10 0 __________P___ -1 15.9682 122.149 2 12 351
1926196N14127 1926 24 WP MM NOT_NAMED 1926-07-16 09:00:00 NR 16.5943 122.045 main 0 0 __________P___ -1 16.5943 122.045 2 13 350
1926196N14127 1926 24 WP MM NOT_NAMED 1926-07-16 10:00:00 NR 16.8000 122.000 main 0 0 __________O___ -1 16.8000 122.000 2 13 347
1926196N14127 1926 24 WP MM NOT_NAMED 1926-07-16 12:00:00 NR 17.2159 121.898 main 0 0 __________P___ -1 17.2159 121.898 2 13 346
1926196N14127 1926 24 WP MM NOT_NAMED 1926-07-16 15:00:00 NR 17.8410 121.721 main 0 0 __________P___ -1 17.8410 121.721 2 13 342
1926196N14127 1926 24 WP MM NOT_NAMED 1926-07-16 18:00:00 NR 18.4153 121.482 main 0 0 __________P___ -1 18.4153 121.482 2 12 332
1926196N14127 1926 24 WP MM NOT_NAMED 1926-07-16 21:00:00 NR 18.8798 121.142 main 39 39 __________P___ -1 18.8798 121.142 2 11 322
1926196N14127 1926 24 WP MM NOT_NAMED 1926-07-16 22:00:00 NR 19.0000 121.000 main 45 44 __________O___ -1 19.0000 121.000 2 11 300
1926196N14127 1926 24 WP MM NOT_NAMED 1926-07-17 00:00:00 NR 19.1460 120.652 main 56 70 __________P___ -1 19.1460 120.652 2 11 285
1926196N14127 1926 24 WP MM NOT_NAMED 1926-07-17 03:00:00 NR 19.2446 120.028 main 107 107 __________P___ -1 19.2446 120.028 2 12 275
1926196N14127 1926 24 WP MM NOT_NAMED 1926-07-17 06:00:00 NR 19.2648 119.335 main 169 169 __________P___ -1 19.2648 119.335 2 13 272
1926196N14127 1926 24 WP MM NOT_NAMED 1926-07-17 09:00:00 NR 19.2819 118.629 main 233 233 __________P___ -1 19.2819 118.629 2 13 272
1926196N14127 1926 24 WP MM NOT_NAMED 1926-07-17 10:00:00 NR 19.3000 118.400 main 252 252 __________O___ -1 19.3000 118.400 4 14 280
1926196N14127 1926 24 WP MM NOT_NAMED 1926-07-17 12:00:00 NR 19.3975 117.919 main 305 305 __________P___ -1 19.3975 117.919 4 14 284
1926196N14127 1926 24 WP MM NOT_NAMED 1926-07-17 15:00:00 NR 19.5749 117.207 main 375 334 __________P___ -1 19.5749 117.207 4 13 287
1926196N14127 1926 24 WP MM NOT_NAMED 1926-07-17 18:00:00 NR 19.7836 116.577 main 334 303 __________P___ -1 19.7836 116.577 4 11 293
1926196N14127 1926 24 WP MM NOT_NAMED 1926-07-17 21:00:00 NR 20.0174 116.108 main 303 291 __________P___ -1 20.0174 116.108 4 9 300
1926196N14127 1926 24 WP MM NOT_NAMED 1926-07-17 22:00:00 NR 20.1000 116.000 main 291 266 __________O___ -1 20.1000 116.000 4 6 323
1926196N14127 1926 24 WP MM NOT_NAMED 1926-07-18 00:00:00 NR 20.2627 115.908 main 266 246 __________P___ -1 20.2627 115.908 4 5 353
1926196N14127 1926 24 WP MM NOT_NAMED 1926-07-18 03:00:00 NR 20.5266 115.941 main 246 214 __________P___ -1 20.5266 115.941 4 6 17
1926196N14127 1926 24 WP MM NOT_NAMED 1926-07-18 06:00:00 NR 20.8084 116.091 main 214 183 __________P___ -1 20.8084 116.091 4 6 27
1926196N14127 1926 24 WP MM NOT_NAMED 1926-07-18 09:00:00 NR 21.1011 116.258 main 186 175 __________P___ -1 21.1011 116.258 4 7 26
1926196N14127 1926 24 WP MM NOT_NAMED 1926-07-18 10:00:00 NR 21.2000 116.300 main 175 154 __________O___ -1 21.2000 116.300 4 6 14
1926196N14127 1926 24 WP MM NOT_NAMED 1926-07-18 12:00:00 NR 21.3985 116.347 main 154 123 __________P___ -1 21.3985 116.347 4 6 4
1926196N14127 1926 24 WP MM NOT_NAMED 1926-07-18 15:00:00 NR 21.6978 116.339 main 123 91 __________P___ -1 21.6978 116.339 4 6 352
1926196N14127 1926 24 WP MM NOT_NAMED 1926-07-18 18:00:00 NR 21.9983 116.261 main 91 54 __________P___ -1 21.9983 116.261 4 6 343
1926196N14127 1926 24 WP MM NOT_NAMED 1926-07-18 21:00:00 NR 22.2995 116.143 main 54 44 __________P___ -1 22.2995 116.143 4 6 340
1926196N14127 1926 24 WP MM NOT_NAMED 1926-07-18 22:00:00 NR 22.4000 116.100 main 44 __________O___ -1 22.4000 116.100 2 7 344

デジタル台風データ・検索

IBTrACS Databaseについて

本データベースは、米国NOAAが公開する1842年以降の世界の熱帯低気圧のベストトラックデータアーカイブInternational Best Track Archive for Climate Stewardship (IBTrACS)を、ウェブで閲覧しやすい形式に変換したものです。

最終更新日:2021-10-21